createdAt,value
2023-02-14T00:01:43.359Z,38.80
2023-02-14T00:03:44.963Z,38.80
2023-02-14T00:05:46.582Z,38.70
2023-02-14T00:07:48.283Z,38.80
2023-02-14T00:09:49.936Z,38.70
2023-02-14T00:11:51.600Z,38.70
2023-02-14T00:14:11.684Z,38.80
2023-02-14T00:16:13.372Z,38.70
2023-02-14T00:18:15.018Z,38.70
2023-02-14T00:20:16.890Z,38.70
2023-02-14T00:22:18.555Z,38.70
2023-02-14T00:24:23.353Z,38.70
2023-02-14T00:26:24.996Z,38.70
2023-02-14T00:28:26.624Z,38.70
2023-02-14T00:30:28.436Z,38.80
2023-02-14T00:32:30.405Z,38.70
2023-02-14T00:34:33.307Z,38.70
2023-02-14T00:36:35.528Z,38.80
2023-02-14T00:38:37.140Z,38.70
2023-02-14T00:40:38.745Z,38.70
2023-02-14T00:42:40.345Z,38.70
2023-02-14T00:44:42.010Z,38.80
2023-02-14T00:46:44.532Z,38.80
2023-02-14T00:48:46.641Z,38.70
2023-02-14T00:50:48.269Z,38.80
2023-02-14T00:52:49.918Z,38.70
2023-02-14T00:54:51.568Z,38.70
2023-02-14T00:56:53.173Z,38.70
2023-02-14T00:58:54.988Z,38.80
2023-02-14T01:00:57.584Z,38.80
2023-02-14T01:02:59.485Z,38.70
2023-02-14T01:05:01.110Z,38.80
2023-02-14T01:07:02.712Z,38.70
2023-02-14T01:09:05.064Z,38.60
2023-02-14T01:11:08.708Z,38.70
2023-02-14T01:13:11.761Z,38.80
2023-02-14T01:15:13.457Z,38.70
2023-02-14T01:17:15.101Z,38.70
2023-02-14T01:19:16.996Z,38.70
2023-02-14T01:21:20.282Z,38.80
2023-02-14T01:23:21.902Z,38.70
2023-02-14T01:25:23.695Z,38.70
2023-02-14T01:27:25.343Z,39.40
2023-02-14T01:29:27.215Z,38.70
2023-02-14T01:31:31.745Z,38.70
2023-02-14T01:33:33.494Z,38.70
2023-02-14T01:35:38.588Z,38.70
2023-02-14T01:37:40.487Z,38.70
2023-02-14T01:39:42.270Z,38.70
2023-02-14T01:41:45.401Z,38.70
2023-02-14T01:43:55.832Z,38.70
2023-02-14T01:45:57.530Z,38.60
2023-02-14T01:47:59.344Z,38.60
2023-02-14T01:50:10.922Z,38.70
2023-02-14T01:52:26.535Z,38.60
2023-02-14T01:54:31.727Z,38.60
2023-02-14T01:56:38.239Z,38.70
2023-02-14T01:58:44.971Z,38.60
2023-02-14T02:01:00.246Z,38.60
2023-02-14T02:03:05.268Z,38.60
2023-02-14T02:05:07.071Z,38.60
2023-02-14T02:07:23.329Z,38.60
2023-02-14T02:09:50.590Z,38.60
2023-02-14T02:11:52.361Z,38.80
2023-02-14T02:13:54.666Z,38.60
2023-02-14T02:16:38.222Z,38.60
2023-02-14T02:18:51.604Z,38.60
2023-02-14T02:21:10.728Z,38.60
2023-02-14T02:23:45.885Z,38.60
2023-02-14T02:26:25.262Z,38.60
2023-02-14T02:29:02.881Z,38.60
2023-02-14T02:31:50.010Z,38.60
2023-02-14T02:34:03.941Z,38.50
2023-02-14T02:36:17.625Z,38.60
2023-02-14T02:38:49.509Z,38.60
2023-02-14T02:41:11.840Z,38.60
2023-02-14T02:43:22.620Z,38.50
2023-02-14T02:45:57.275Z,38.60
2023-02-14T02:48:10.546Z,38.50
2023-02-14T02:50:55.818Z,38.50
2023-02-14T02:53:07.269Z,38.50
2023-02-14T02:55:22.957Z,38.50
2023-02-14T02:57:34.453Z,38.50
2023-02-14T02:59:41.759Z,38.50
2023-02-14T03:01:45.173Z,38.50
2023-02-14T03:04:08.403Z,38.50
2023-02-14T03:06:10.191Z,38.50
2023-02-14T03:08:11.851Z,38.40
2023-02-14T03:10:19.030Z,38.50
2023-02-14T03:12:58.137Z,38.50
2023-02-14T03:15:08.683Z,38.50
2023-02-14T03:17:43.258Z,39.10
2023-02-14T03:20:13.804Z,38.50
2023-02-14T03:22:22.285Z,38.50
2023-02-14T03:24:36.397Z,38.40
2023-02-14T03:27:14.943Z,38.50
2023-02-14T03:29:21.156Z,38.40
2023-02-14T03:31:44.089Z,38.40
2023-02-14T03:34:01.004Z,38.50
2023-02-14T03:36:18.396Z,38.40
2023-02-14T03:38:48.096Z,38.40
2023-02-14T03:40:57.906Z,38.40
2023-02-14T03:43:03.011Z,38.40
2023-02-14T03:45:07.969Z,38.40
2023-02-14T03:47:16.694Z,38.40
2023-02-14T03:49:23.303Z,38.30
2023-02-14T03:51:26.134Z,38.40
2023-02-14T03:53:33.186Z,38.30
2023-02-14T03:55:47.170Z,38.40
2023-02-14T03:58:11.946Z,38.40
2023-02-14T04:00:14.587Z,38.40
2023-02-14T04:02:16.175Z,38.40
2023-02-14T04:04:24.019Z,38.40
2023-02-14T04:06:25.642Z,38.30
2023-02-14T04:08:29.478Z,38.30
2023-02-14T04:10:32.254Z,38.30
2023-02-14T04:12:37.968Z,38.30
2023-02-14T04:14:39.978Z,38.30
2023-02-14T04:17:00.300Z,38.30
2023-02-14T04:19:20.800Z,38.30
2023-02-14T04:21:22.459Z,38.60
2023-02-14T04:23:24.200Z,38.20
2023-02-14T04:25:25.954Z,38.30
2023-02-14T04:27:27.689Z,38.20
2023-02-14T04:29:29.289Z,38.20
2023-02-14T04:31:31.058Z,38.20
2023-02-14T04:33:33.523Z,38.20
2023-02-14T04:35:35.790Z,38.30
2023-02-14T04:37:37.467Z,38.20
2023-02-14T04:39:39.377Z,38.20
2023-02-14T04:41:41.084Z,38.10
2023-02-14T04:43:42.684Z,38.20
2023-02-14T04:45:44.369Z,38.00
2023-02-14T04:47:46.372Z,38.00
2023-02-14T04:49:47.964Z,38.00
2023-02-14T04:51:49.677Z,38.00
2023-02-14T04:53:51.294Z,37.90
2023-02-14T04:55:52.985Z,37.90
2023-02-14T04:57:54.687Z,37.80
2023-02-14T04:59:56.425Z,38.10
2023-02-14T05:01:58.223Z,37.80
2023-02-14T05:03:59.986Z,37.80
2023-02-14T05:06:01.725Z,37.80
2023-02-14T05:08:03.407Z,38.40
2023-02-14T05:10:05.981Z,37.80
2023-02-14T05:12:07.763Z,37.80
2023-02-14T05:14:09.660Z,38.00
2023-02-14T05:16:11.370Z,37.90
2023-02-14T05:18:13.054Z,37.80
2023-02-14T05:20:14.825Z,37.90
2023-02-14T05:22:18.479Z,37.80
2023-02-14T05:24:20.249Z,37.90
2023-02-14T05:26:21.919Z,37.80
2023-02-14T05:28:23.797Z,37.80
2023-02-14T05:30:27.912Z,37.80
2023-02-14T05:32:29.593Z,37.80
2023-02-14T05:34:31.246Z,37.80
2023-02-14T05:36:32.925Z,37.80
2023-02-14T05:38:34.917Z,37.80
2023-02-14T05:40:36.522Z,37.80
2023-02-14T05:42:38.188Z,37.90
2023-02-14T05:44:39.788Z,37.90
2023-02-14T05:46:41.470Z,37.90
2023-02-14T05:48:43.129Z,37.90
2023-02-14T05:50:45.543Z,37.90
2023-02-14T05:52:47.849Z,38.00
2023-02-14T05:54:49.543Z,38.90
2023-02-14T05:56:51.200Z,38.20
2023-02-14T05:58:52.852Z,38.20
2023-02-14T06:00:56.111Z,38.20
2023-02-14T06:02:57.740Z,38.30
2023-02-14T06:04:59.366Z,38.30
2023-02-14T06:07:00.982Z,38.30
2023-02-14T06:09:02.794Z,38.50
2023-02-14T06:11:04.547Z,38.50
2023-02-14T06:13:10.566Z,38.50
2023-02-14T06:15:12.509Z,38.50
2023-02-14T06:17:14.169Z,38.50
2023-02-14T06:19:15.822Z,38.50
2023-02-14T06:21:17.457Z,38.50
2023-02-14T06:23:19.113Z,38.50
2023-02-14T06:25:22.439Z,38.40
2023-02-14T06:27:24.090Z,38.50
2023-02-14T06:29:25.789Z,38.40
2023-02-14T06:31:27.565Z,38.40
2023-02-14T06:33:29.255Z,38.50
2023-02-14T06:35:30.943Z,38.50
2023-02-14T06:37:32.905Z,38.50
2023-02-14T06:39:34.516Z,38.50
2023-02-14T06:41:36.510Z,38.40
2023-02-14T06:43:38.647Z,38.50
2023-02-14T06:45:43.650Z,38.50
2023-02-14T06:47:45.762Z,38.50
2023-02-14T06:49:47.414Z,38.50
2023-02-14T06:51:49.107Z,38.50
2023-02-14T06:53:50.868Z,38.30
2023-02-14T06:55:52.701Z,38.30
2023-02-14T06:57:54.354Z,38.30
2023-02-14T06:59:56.102Z,38.20
2023-02-14T07:01:57.894Z,38.20
2023-02-14T07:03:59.612Z,38.20
2023-02-14T07:06:01.320Z,38.10
2023-02-14T07:08:03.294Z,38.10
2023-02-14T07:10:05.513Z,38.20
2023-02-14T07:12:07.332Z,38.10
2023-02-14T07:14:09.025Z,38.10
2023-02-14T07:16:11.114Z,38.00
2023-02-14T07:18:12.899Z,38.00
2023-02-14T07:20:14.904Z,38.00
2023-02-14T07:22:16.554Z,37.90
2023-02-14T07:24:18.174Z,37.90
2023-02-14T07:26:19.899Z,37.90
2023-02-14T07:28:21.722Z,37.90
2023-02-14T07:30:23.530Z,38.50
2023-02-14T07:32:25.821Z,37.80
2023-02-14T07:34:27.499Z,37.80
2023-02-14T07:36:29.169Z,37.80
2023-02-14T07:38:30.981Z,37.80
2023-02-14T07:40:32.661Z,37.80
2023-02-14T07:42:34.325Z,37.70
2023-02-14T07:44:38.456Z,37.70
2023-02-14T07:46:40.249Z,37.70
2023-02-14T07:48:41.945Z,37.60
2023-02-14T07:50:43.827Z,37.60
2023-02-14T07:52:45.852Z,37.60
2023-02-14T07:54:47.536Z,37.60
2023-02-14T07:56:49.686Z,37.60
2023-02-14T07:58:51.346Z,37.60
2023-02-14T08:00:53.003Z,37.60
2023-02-14T08:02:56.062Z,37.60
2023-02-14T08:04:57.818Z,37.50
2023-02-14T08:06:59.479Z,37.50
2023-02-14T08:09:01.444Z,37.40
2023-02-14T08:11:03.557Z,37.40
2023-02-14T08:13:05.249Z,37.30
2023-02-14T08:15:25.403Z,37.30
2023-02-14T08:17:27.130Z,37.30
2023-02-14T08:19:29.268Z,37.30
2023-02-14T08:21:31.013Z,37.20
2023-02-14T08:23:33.136Z,37.20
2023-02-14T08:25:34.887Z,37.10
2023-02-14T08:27:36.798Z,37.20
2023-02-14T08:29:38.446Z,37.10
2023-02-14T08:31:40.226Z,37.10
2023-02-14T08:33:44.132Z,37.10
2023-02-14T08:35:45.910Z,37.10
2023-02-14T08:37:47.712Z,37.00
2023-02-14T08:39:49.352Z,37.00
2023-02-14T08:41:50.986Z,36.90
2023-02-14T08:43:53.016Z,36.90
2023-02-14T08:45:54.814Z,36.90
2023-02-14T08:48:04.403Z,36.90
2023-02-14T08:50:11.305Z,36.80
2023-02-14T08:52:12.964Z,36.80
2023-02-14T08:54:14.854Z,36.80
2023-02-14T08:56:16.541Z,36.70
2023-02-14T08:58:18.440Z,36.80
2023-02-14T09:00:20.751Z,36.70
2023-02-14T09:02:22.513Z,37.30
2023-02-14T09:04:24.547Z,36.60
2023-02-14T09:06:26.242Z,36.60
2023-02-14T09:08:27.898Z,36.60
2023-02-14T09:10:29.822Z,36.60
2023-02-14T09:12:31.469Z,36.50
2023-02-14T09:14:43.834Z,36.50
2023-02-14T09:16:45.531Z,36.50
2023-02-14T09:18:48.189Z,36.50
2023-02-14T09:20:49.869Z,36.50
2023-02-14T09:22:51.659Z,36.50
2023-02-14T09:24:53.353Z,36.50
2023-02-14T09:26:55.633Z,36.40
2023-02-14T09:28:57.398Z,36.40
2023-02-14T09:31:07.665Z,36.40
2023-02-14T09:33:09.477Z,36.40
2023-02-14T09:35:29.565Z,36.40
2023-02-14T09:37:31.238Z,36.40
2023-02-14T09:39:33.048Z,36.40
2023-02-14T09:41:53.279Z,36.40
2023-02-14T09:44:07.255Z,36.40
2023-02-14T09:46:15.539Z,36.40
2023-02-14T09:48:19.970Z,36.30
2023-02-14T09:50:37.965Z,36.30
2023-02-14T09:52:39.694Z,36.40
2023-02-14T09:54:46.015Z,36.50
2023-02-14T09:56:54.246Z,36.60
2023-02-14T09:59:24.076Z,36.60
2023-02-14T10:01:40.870Z,36.60
2023-02-14T10:04:01.359Z,36.60
2023-02-14T10:06:09.024Z,36.50
2023-02-14T10:08:37.625Z,36.50
2023-02-14T10:10:52.977Z,36.60
2023-02-14T10:13:12.541Z,36.60
2023-02-14T10:15:20.649Z,36.50
2023-02-14T10:17:36.307Z,36.50
2023-02-14T10:19:57.281Z,36.50
2023-02-14T10:22:05.437Z,36.50
2023-02-14T10:24:19.268Z,36.40
2023-02-14T10:26:40.051Z,36.40
2023-02-14T10:28:49.763Z,36.40
2023-02-14T10:31:15.008Z,36.50
2023-02-14T10:33:29.460Z,36.50
2023-02-14T10:35:51.605Z,36.40
2023-02-14T10:38:30.160Z,36.40
2023-02-14T10:40:43.552Z,36.40
2023-02-14T10:43:15.154Z,36.50
2023-02-14T10:45:27.996Z,36.40
2023-02-14T10:47:39.049Z,36.40
2023-02-14T10:50:10.167Z,36.40
2023-02-14T10:52:26.714Z,36.50
2023-02-14T10:54:36.254Z,36.50
2023-02-14T10:56:43.383Z,36.50
2023-02-14T10:58:46.931Z,36.40
2023-02-14T11:01:01.032Z,36.40
2023-02-14T11:03:08.254Z,36.40
2023-02-14T11:05:35.483Z,36.40
2023-02-14T11:07:37.137Z,36.40
2023-02-14T11:09:38.790Z,36.40
2023-02-14T11:11:58.853Z,36.40
2023-02-14T11:14:26.102Z,36.40
2023-02-14T11:16:33.817Z,36.40
2023-02-14T11:18:37.378Z,36.40
2023-02-14T11:20:39.180Z,36.40
2023-02-14T11:22:40.834Z,36.50
2023-02-14T11:24:42.529Z,36.60
2023-02-14T11:26:49.913Z,36.60
2023-02-14T11:28:58.712Z,36.70
2023-02-14T11:31:01.112Z,36.80
2023-02-14T11:33:04.665Z,36.80
2023-02-14T11:35:16.752Z,36.70
2023-02-14T11:37:27.752Z,36.70
2023-02-14T11:39:35.668Z,36.60
2023-02-14T11:41:56.157Z,36.70
2023-02-14T11:44:15.700Z,36.70
2023-02-14T11:46:20.476Z,36.70
2023-02-14T11:48:37.788Z,36.70
2023-02-14T11:50:42.533Z,36.70
2023-02-14T11:52:54.436Z,36.70
2023-02-14T11:54:58.006Z,36.80
2023-02-14T11:57:37.718Z,36.80
2023-02-14T11:59:45.212Z,37.40
2023-02-14T12:01:46.996Z,36.70
2023-02-14T12:03:50.252Z,36.70
2023-02-14T12:05:57.057Z,36.70
2023-02-14T12:08:02.082Z,36.60
2023-02-14T12:10:17.291Z,36.70
2023-02-14T12:12:23.356Z,36.70
2023-02-14T12:14:31.445Z,36.70
2023-02-14T12:16:42.917Z,36.70
2023-02-14T12:18:56.159Z,36.70
2023-02-14T12:21:42.327Z,36.60
2023-02-14T12:24:06.361Z,36.70
2023-02-14T12:26:20.294Z,36.60
2023-02-14T12:28:51.241Z,36.60
2023-02-14T12:30:53.010Z,36.60
2023-02-14T12:32:58.974Z,36.70
2023-02-14T12:35:14.660Z,36.70
2023-02-14T12:38:04.421Z,36.80
2023-02-14T12:40:30.541Z,37.10
2023-02-14T12:42:40.746Z,37.10
2023-02-14T12:45:20.619Z,37.00
2023-02-14T12:47:45.369Z,37.00
2023-02-14T12:50:16.663Z,37.00
2023-02-14T12:52:38.770Z,36.90
2023-02-14T12:54:57.788Z,37.00
2023-02-14T12:56:59.349Z,37.00
2023-02-14T12:59:13.445Z,36.90
2023-02-14T13:01:41.263Z,37.00
2023-02-14T13:03:45.613Z,37.00
2023-02-14T13:06:00.377Z,36.90
2023-02-14T13:08:10.706Z,37.00
2023-02-14T13:10:27.586Z,37.00
2023-02-14T13:12:42.546Z,37.00
2023-02-14T13:14:50.102Z,37.00
2023-02-14T13:17:07.382Z,37.10
2023-02-14T13:19:53.980Z,37.10
2023-02-14T13:21:59.686Z,37.10
2023-02-14T13:24:22.911Z,37.10
2023-02-14T13:26:33.099Z,37.20
2023-02-14T13:28:37.402Z,37.20
2023-02-14T13:30:42.217Z,37.20
2023-02-14T13:32:46.849Z,37.20
2023-02-14T13:34:50.289Z,37.20
2023-02-14T13:36:53.540Z,37.40
2023-02-14T13:38:57.640Z,37.20
2023-02-14T13:41:01.720Z,37.20
2023-02-14T13:43:04.315Z,37.30
2023-02-14T13:45:06.623Z,37.30
2023-02-14T13:47:20.321Z,37.40
2023-02-14T13:49:34.601Z,37.50
2023-02-14T13:51:57.448Z,37.60
2023-02-14T13:53:59.103Z,37.60
2023-02-14T13:56:04.600Z,37.60
2023-02-14T13:58:16.222Z,37.40
2023-02-14T14:00:17.874Z,37.60
2023-02-14T14:02:30.213Z,37.60
2023-02-14T14:04:35.613Z,37.70
2023-02-14T14:07:05.027Z,37.70
2023-02-14T14:09:10.684Z,37.80
2023-02-14T14:11:23.271Z,37.80
2023-02-14T14:13:40.395Z,37.70
2023-02-14T14:16:20.555Z,37.80
2023-02-14T14:18:28.239Z,37.80
2023-02-14T14:20:38.183Z,37.80
2023-02-14T14:22:51.186Z,37.80
2023-02-14T14:25:05.664Z,37.90
2023-02-14T14:27:19.919Z,37.90
2023-02-14T14:29:40.982Z,37.90
2023-02-14T14:31:42.956Z,37.90
2023-02-14T14:33:44.621Z,37.90
2023-02-14T14:36:22.146Z,37.90
2023-02-14T14:38:24.625Z,38.00
2023-02-14T14:40:29.941Z,38.30
2023-02-14T14:42:37.629Z,38.20
2023-02-14T14:44:46.906Z,38.30
2023-02-14T14:46:49.122Z,38.20
2023-02-14T14:48:54.886Z,38.30
2023-02-14T14:50:57.170Z,38.20
2023-02-14T14:53:05.206Z,38.30
2023-02-14T14:55:09.323Z,38.30
2023-02-14T14:57:17.908Z,38.10
2023-02-14T14:59:36.328Z,38.30
2023-02-14T15:01:39.975Z,38.30
2023-02-14T15:03:41.912Z,38.20
2023-02-14T15:05:46.643Z,38.30
2023-02-14T15:07:48.386Z,38.20
2023-02-14T15:09:51.180Z,38.20
2023-02-14T15:12:12.435Z,38.30
2023-02-14T15:14:18.890Z,38.30
2023-02-14T15:16:22.153Z,38.30
2023-02-14T15:18:24.372Z,38.30
2023-02-14T15:20:26.419Z,38.40
2023-02-14T15:22:48.639Z,38.30
2023-02-14T15:24:51.812Z,38.30
2023-02-14T15:26:53.891Z,38.30
2023-02-14T15:29:01.317Z,38.30
2023-02-14T15:31:06.069Z,38.90
2023-02-14T15:33:10.439Z,38.30
2023-02-14T15:35:16.158Z,38.30
2023-02-14T15:37:18.881Z,38.30
2023-02-14T15:39:23.695Z,38.40
2023-02-14T15:41:26.829Z,38.40
2023-02-14T15:43:32.412Z,38.40
2023-02-14T15:45:34.134Z,38.40
2023-02-14T15:47:35.977Z,38.50
2023-02-14T15:49:41.275Z,38.40
2023-02-14T15:51:43.457Z,38.40
2023-02-14T15:53:53.437Z,38.40
2023-02-14T15:56:01.341Z,38.40
2023-02-14T15:58:24.976Z,38.30
2023-02-14T16:00:26.970Z,37.40
2023-02-14T16:02:42.011Z,37.60
2023-02-14T16:04:44.278Z,38.10
2023-02-14T16:06:48.068Z,38.80
2023-02-14T16:08:55.834Z,39.50
2023-02-14T16:11:08.838Z,39.20
2023-02-14T16:13:20.396Z,39.30
2023-02-14T16:15:28.222Z,39.40
2023-02-14T16:17:34.578Z,39.60
2023-02-14T16:19:42.210Z,39.60
2023-02-14T16:21:55.765Z,39.70
2023-02-14T16:24:06.669Z,39.80
2023-02-14T16:26:09.209Z,40.40
2023-02-14T16:28:10.900Z,39.70
2023-02-14T16:30:19.588Z,39.60
2023-02-14T16:32:23.119Z,39.50
2023-02-14T16:34:26.191Z,39.50
2023-02-14T16:36:30.317Z,39.50
2023-02-14T16:38:35.562Z,39.70
2023-02-14T16:40:37.217Z,39.70
2023-02-14T16:42:42.594Z,39.90
2023-02-14T16:44:45.716Z,39.80
2023-02-14T16:46:47.377Z,40.00
2023-02-14T16:48:52.180Z,40.10
2023-02-14T16:50:54.047Z,40.20
2023-02-14T16:52:57.782Z,40.30
2023-02-14T16:54:59.394Z,40.50
2023-02-14T16:57:04.811Z,40.50
2023-02-14T16:59:06.498Z,40.80
2023-02-14T17:01:08.266Z,40.80
2023-02-14T17:03:11.511Z,41.00
2023-02-14T17:05:13.294Z,40.90
2023-02-14T17:07:15.912Z,40.80
2023-02-14T17:09:21.390Z,40.70
2023-02-14T17:11:25.070Z,40.60
2023-02-14T17:13:28.786Z,41.20
2023-02-14T17:15:31.044Z,40.90
2023-02-14T17:17:34.106Z,40.80
2023-02-14T17:19:36.442Z,40.70
2023-02-14T17:21:38.354Z,40.50
2023-02-14T17:23:40.040Z,40.50
2023-02-14T17:25:41.830Z,40.60
2023-02-14T17:27:44.433Z,40.60
2023-02-14T17:29:46.060Z,41.10
2023-02-14T17:31:48.290Z,40.90
2023-02-14T17:33:49.936Z,40.90
2023-02-14T17:35:51.970Z,40.70
2023-02-14T17:37:53.597Z,41.10
2023-02-14T17:39:55.280Z,40.80
2023-02-14T17:41:57.050Z,41.10
2023-02-14T17:44:00.280Z,40.70
2023-02-14T17:46:04.628Z,40.50
2023-02-14T17:48:06.497Z,40.50
2023-02-14T17:50:09.014Z,40.30
2023-02-14T17:52:10.681Z,40.00
2023-02-14T17:54:12.460Z,40.30
2023-02-14T17:56:20.319Z,40.10
2023-02-14T17:58:21.958Z,40.30
2023-02-14T18:00:24.142Z,40.10
2023-02-14T18:02:25.888Z,40.10
2023-02-14T18:04:29.948Z,40.10
2023-02-14T18:06:32.146Z,40.20
2023-02-14T18:08:39.406Z,40.20
2023-02-14T18:10:41.025Z,40.30
2023-02-14T18:12:42.668Z,40.10
2023-02-14T18:14:44.369Z,40.20
2023-02-14T18:16:46.161Z,40.20
2023-02-14T18:18:48.209Z,40.00
2023-02-14T18:21:01.545Z,40.10
2023-02-14T18:23:07.041Z,40.10
2023-02-14T18:25:08.945Z,40.10
2023-02-14T18:27:10.572Z,39.90
2023-02-14T18:29:13.223Z,39.80
2023-02-14T18:31:16.936Z,39.90
2023-02-14T18:33:18.850Z,39.90
2023-02-14T18:35:20.450Z,39.80
2023-02-14T18:37:22.111Z,39.80
2023-02-14T18:39:23.772Z,39.70
2023-02-14T18:41:26.560Z,39.60
2023-02-14T18:43:28.188Z,39.50
2023-02-14T18:45:29.909Z,39.50
2023-02-14T18:47:31.607Z,39.50
2023-02-14T18:49:33.429Z,39.40
2023-02-14T18:51:38.965Z,39.40
2023-02-14T18:53:41.467Z,39.50
2023-02-14T18:55:43.074Z,39.30
2023-02-14T18:57:44.790Z,37.10
2023-02-14T18:59:46.436Z,37.30
2023-02-14T19:01:48.062Z,38.10
2023-02-14T19:03:54.459Z,38.80
2023-02-14T19:05:59.647Z,38.90
2023-02-14T19:08:01.360Z,39.00
2023-02-14T19:10:05.991Z,39.00
2023-02-14T19:12:07.820Z,39.00
2023-02-14T19:14:10.375Z,39.00
2023-02-14T19:16:14.332Z,39.10
2023-02-14T19:18:16.313Z,39.20
2023-02-14T19:20:17.982Z,39.20
2023-02-14T19:22:20.025Z,39.00
2023-02-14T19:24:24.128Z,39.10
2023-02-14T19:26:37.011Z,39.00
2023-02-14T19:28:39.062Z,39.00
2023-02-14T19:30:40.839Z,38.90
2023-02-14T19:32:42.488Z,38.90
2023-02-14T19:34:44.147Z,39.00
2023-02-14T19:36:46.517Z,38.90
2023-02-14T19:38:50.338Z,38.90
2023-02-14T19:40:52.373Z,39.00
2023-02-14T19:42:54.022Z,39.00
2023-02-14T19:44:55.620Z,38.90
2023-02-14T19:46:59.979Z,39.50
2023-02-14T19:49:01.843Z,38.90
2023-02-14T19:51:04.050Z,38.90
2023-02-14T19:53:05.758Z,38.90
2023-02-14T19:55:07.764Z,38.90
2023-02-14T19:57:13.826Z,38.90
2023-02-14T19:59:19.840Z,39.00
2023-02-14T20:01:34.515Z,38.90
2023-02-14T20:03:37.123Z,38.90
2023-02-14T20:05:39.321Z,38.90
2023-02-14T20:07:40.990Z,38.90
2023-02-14T20:09:42.662Z,38.80
2023-02-14T20:11:50.177Z,38.80
2023-02-14T20:13:54.435Z,38.80
2023-02-14T20:15:56.083Z,38.90
2023-02-14T20:17:57.744Z,38.80
2023-02-14T20:19:59.572Z,38.80
2023-02-14T20:22:01.698Z,38.80
2023-02-14T20:24:04.453Z,38.80
2023-02-14T20:26:12.252Z,38.80
2023-02-14T20:28:14.057Z,38.80
2023-02-14T20:30:20.536Z,38.80
2023-02-14T20:32:22.214Z,38.90
2023-02-14T20:34:24.252Z,38.80
2023-02-14T20:36:26.539Z,38.80
2023-02-14T20:38:28.209Z,38.80
2023-02-14T20:40:29.808Z,38.90
2023-02-14T20:42:31.696Z,38.80
2023-02-14T20:44:33.799Z,38.90
2023-02-14T20:46:36.172Z,38.80
2023-02-14T20:48:38.162Z,38.90
2023-02-14T20:50:39.878Z,38.90
2023-02-14T20:52:41.558Z,38.90
2023-02-14T20:54:43.246Z,38.90
2023-02-14T20:56:45.697Z,38.90
2023-02-14T20:58:47.368Z,38.80
2023-02-14T21:00:49.001Z,38.90
2023-02-14T21:02:50.584Z,38.90
2023-02-14T21:04:52.277Z,38.80
2023-02-14T21:06:54.473Z,38.80
2023-02-14T21:08:56.630Z,38.90
2023-02-14T21:10:58.858Z,38.80
2023-02-14T21:13:00.687Z,38.90
2023-02-14T21:15:02.370Z,38.80
2023-02-14T21:17:04.677Z,38.80
2023-02-14T21:19:06.493Z,38.80
2023-02-14T21:21:22.391Z,38.80
2023-02-14T21:23:24.117Z,38.80
2023-02-14T21:25:26.745Z,38.70
2023-02-14T21:27:28.416Z,38.70
2023-02-14T21:29:30.089Z,38.70
2023-02-14T21:31:33.008Z,38.60
2023-02-14T21:33:35.524Z,38.70
2023-02-14T21:35:37.382Z,38.60
2023-02-14T21:37:39.015Z,38.50
2023-02-14T21:39:40.602Z,38.50
2023-02-14T21:41:42.387Z,38.50
2023-02-14T21:43:46.136Z,38.40
2023-02-14T21:45:54.579Z,38.40
2023-02-14T21:48:15.217Z,38.40
2023-02-14T21:50:32.153Z,38.40
2023-02-14T21:52:34.246Z,38.30
2023-02-14T21:54:35.902Z,38.30
2023-02-14T21:56:38.918Z,38.20
2023-02-14T21:58:41.149Z,38.30
2023-02-14T22:00:45.759Z,38.30
2023-02-14T22:02:48.588Z,38.30
2023-02-14T22:04:50.250Z,38.30
2023-02-14T22:06:52.233Z,38.30
2023-02-14T22:08:55.178Z,38.30
2023-02-14T22:10:57.485Z,38.30
2023-02-14T22:12:59.125Z,38.30
2023-02-14T22:15:01.384Z,38.30
2023-02-14T22:17:03.043Z,38.30
2023-02-14T22:19:12.100Z,38.40
2023-02-14T22:21:16.624Z,38.30
2023-02-14T22:23:18.294Z,38.40
2023-02-14T22:25:19.920Z,38.30
2023-02-14T22:27:21.569Z,38.40
2023-02-14T22:29:23.179Z,38.40
2023-02-14T22:31:26.488Z,38.40
2023-02-14T22:33:28.231Z,38.40
2023-02-14T22:35:29.963Z,38.40
2023-02-14T22:37:31.590Z,38.40
2023-02-14T22:39:33.424Z,38.40
2023-02-14T22:41:37.799Z,38.40
2023-02-14T22:43:40.033Z,38.40
2023-02-14T22:45:41.736Z,38.40
2023-02-14T22:47:43.353Z,38.40
2023-02-14T22:49:45.043Z,38.50
2023-02-14T22:51:46.824Z,38.40
2023-02-14T22:53:50.039Z,38.40
2023-02-14T22:55:51.642Z,38.40
2023-02-14T22:57:53.420Z,38.40
2023-02-14T22:59:55.031Z,38.50
2023-02-14T23:01:56.851Z,38.40
2023-02-14T23:04:00.201Z,38.40
2023-02-14T23:06:02.205Z,38.50
2023-02-14T23:08:04.058Z,38.40
2023-02-14T23:10:07.746Z,38.40
2023-02-14T23:12:29.401Z,38.40
2023-02-14T23:14:49.773Z,38.40
2023-02-14T23:17:10.866Z,38.40
2023-02-14T23:19:36.573Z,38.40
2023-02-14T23:21:56.345Z,38.40
2023-02-14T23:23:58.043Z,38.40
2023-02-14T23:26:00.604Z,38.40
2023-02-14T23:28:02.671Z,38.40
2023-02-14T23:30:07.739Z,38.40
2023-02-14T23:32:09.759Z,38.40
2023-02-14T23:34:11.745Z,38.40
2023-02-14T23:36:13.414Z,38.40
2023-02-14T23:38:15.072Z,38.40
2023-02-14T23:40:17.044Z,38.40
2023-02-14T23:42:18.896Z,38.40
2023-02-14T23:44:25.858Z,38.40
2023-02-14T23:46:27.492Z,38.40
2023-02-14T23:48:29.105Z,38.40
2023-02-14T23:50:31.346Z,38.40
2023-02-14T23:52:33.002Z,38.40
2023-02-14T23:54:35.282Z,38.40
2023-02-14T23:56:37.396Z,38.40
2023-02-14T23:58:39.061Z,38.40
